Lubbock, TX (79401)

7:20 AM CDT on June 22, 2017 (GMT -0500)
Maxey Park | | Change Station

Elev 3237 ft 33.57 °N, 101.89 °W | Updated 7 seconds ago

Partly Cloudy
Partly Cloudy
69.6 °F
Feels Like 69.6 °F
N
0.0
Wind Variable Wind from SW

Today
High -- | Low -- °F
--% Chance of Precip.
Yesterday
High -- | Low -- °F
Precip. -- in
Pressure 29.67 in
Visibility 10.0 miles
Clouds Few 14000 ft
Scattered Clouds 25000 ft
Dew Point 59 °F
Humidity 70%
Rainfall 0.02 in
Snow Depth Not available.
6:38 AM 9:01 PM
Waning Crescent, 4% visible
METAR KLBB 221153Z 16007KT 10SM FEW140 SCT250 21/16 A2985 RMK AO2 SLP047 60000 70020 T02060156 10228 20206 56012
Pressure 29.67 in
Visibility 10.0 miles
Clouds Few 14000 ft
Scattered Clouds 25000 ft
Dew Point 59 °F
Humidity 70%
Rainfall 0.02 in
Snow Depth Not available.
6:38 AM 9:01 PM
Waning Crescent, 4% visible
METAR KLBB 221153Z 16007KT 10SM FEW140 SCT250 21/16 A2985 RMK AO2 SLP047 60000 70020 T02060156 10228 20206 56012

Get Severe Weather Alerts

Thanks for signing up!

Be on the lookout for a verification email in your inbox.

You'll start receiving the daily forecast at 6 AM.

×

10-Day Weather Forecast

Almanac

Astronomy

Jun. 22, 2017 Rise Set
Actual Time
Civil Twilight
Nautical Twilight
Astronomical Twilight
Moon
Length of Visible Light
Length of Day
Tomorrow will be .
, % of the Moon is Illuminated

Today's Extremes

State Highs State Lows

Community

WunderPhotos

Category 6

Welcome to Category 6. This is the collective home for Weather Underground's featured writeups by Dr. Jeff Masters (right), Bob Henson (left), Chris Burt, and other regular contributors.

Nearby

Air Quality

  Air Quality AQ Index Pollutant
Not available.

Snow Depth

Station Depth Elevation

Earthquake Activity

City Distance Mag. Time & Date
Minimum magnitude displayed is 2.5.

Coastal Water Temperatures

Place Temperature

Stations

Nearby Weather Stations

Station Location Temp. Windchill Dew Point Humidity Wind Precip. Elev Updated Type
                   

Watches & Warnings

There are currently no watches in effect.